createdAt,value
2023-04-12T00:00:44.949Z,3.95
2023-04-12T00:03:51.045Z,3.92
2023-04-12T00:06:54.587Z,3.50
2023-04-12T00:09:58.317Z,3.70
2023-04-12T00:13:00.157Z,3.75
2023-04-12T00:16:02.102Z,3.63
2023-04-12T00:19:05.091Z,3.97
2023-04-12T00:22:06.931Z,3.83
2023-04-12T00:25:10.841Z,3.78
2023-04-12T00:28:12.799Z,3.92
2023-04-12T00:31:14.933Z,4.28
2023-04-12T00:34:17.308Z,3.47
2023-04-12T00:37:19.864Z,3.72
2023-04-12T00:40:23.231Z,3.95
2023-04-12T00:43:27.628Z,3.95
2023-04-12T00:46:30.069Z,3.85
2023-04-12T00:49:33.776Z,4.22
2023-04-12T00:52:35.870Z,3.45
2023-04-12T00:55:39.137Z,4.75
2023-04-12T00:58:41.638Z,4.25
2023-04-12T01:01:45.605Z,5.32
2023-04-12T01:04:50.724Z,3.90
2023-04-12T01:08:05.326Z,5.22
2023-04-12T01:11:15.647Z,5.05
2023-04-12T01:14:24.599Z,4.85
2023-04-12T01:17:31.406Z,5.20
2023-04-12T01:20:39.386Z,5.25
2023-04-12T01:23:54.112Z,4.88
2023-04-12T01:27:00.866Z,4.88
2023-04-12T01:30:08.361Z,4.90
2023-04-12T01:33:12.404Z,4.57
2023-04-12T01:36:18.287Z,4.80
2023-04-12T01:39:20.466Z,4.95
2023-04-12T01:42:22.292Z,4.88
2023-04-12T01:45:27.548Z,4.65
2023-04-12T01:48:29.422Z,5.22
2023-04-12T01:51:42.259Z,5.03
2023-04-12T01:54:45.362Z,4.20
2023-04-12T01:57:49.372Z,4.57
2023-04-12T02:00:54.940Z,4.68
2023-04-12T02:04:00.051Z,5.20
2023-04-12T02:07:02.794Z,4.97
2023-04-12T02:10:05.234Z,4.32
2023-04-12T02:13:07.582Z,4.10
2023-04-12T02:16:11.105Z,5.45
2023-04-12T02:19:14.109Z,5.45
2023-04-12T02:22:16.789Z,4.57
2023-04-12T02:25:18.728Z,5.38
2023-04-12T02:28:23.241Z,4.50
2023-04-12T02:31:26.456Z,4.90
2023-04-12T02:34:34.248Z,4.50
2023-04-12T02:37:37.011Z,4.68
2023-04-12T02:40:40.894Z,5.05
2023-04-12T02:43:43.527Z,5.68
2023-04-12T02:46:46.700Z,5.60
2023-04-12T02:49:49.444Z,5.95
2023-04-12T02:52:51.664Z,5.32
2023-04-12T02:55:53.481Z,5.35
2023-04-12T02:58:55.844Z,5.45
2023-04-12T03:01:59.174Z,5.13
2023-04-12T03:05:03.393Z,5.57
2023-04-12T03:08:05.886Z,5.90
2023-04-12T03:11:07.781Z,4.85
2023-04-12T03:14:10.420Z,5.90
2023-04-12T03:17:13.644Z,5.55
2023-04-12T03:20:17.320Z,5.22
2023-04-12T03:23:20.611Z,6.00
2023-04-12T03:26:26.600Z,5.22
2023-04-12T03:29:28.695Z,5.55
2023-04-12T03:32:34.837Z,5.57
2023-04-12T03:38:39.091Z,4.97
2023-04-12T03:41:41.559Z,4.75
2023-04-12T03:44:43.435Z,4.40
2023-04-12T03:47:46.871Z,3.92
2023-04-12T03:50:49.434Z,4.75
2023-04-12T03:53:51.258Z,4.63
2023-04-12T03:56:53.337Z,3.10
2023-04-12T03:59:55.412Z,4.35
2023-04-12T04:03:03.725Z,3.78
2023-04-12T04:06:07.262Z,3.30
2023-04-12T04:09:09.125Z,4.15
2023-04-12T04:12:11.355Z,4.47
2023-04-12T04:15:15.108Z,3.53
2023-04-12T04:18:18.617Z,3.85
2023-04-12T04:21:22.419Z,3.53
2023-04-12T04:24:25.440Z,3.50
2023-04-12T04:27:30.671Z,3.92
2023-04-12T04:30:34.409Z,3.20
2023-04-12T04:33:38.007Z,3.60
2023-04-12T04:36:41.761Z,3.40
2023-04-12T04:39:43.539Z,3.05
2023-04-12T04:42:46.437Z,2.90
2023-04-12T04:45:54.699Z,3.05
2023-04-12T04:48:58.744Z,2.95
2023-04-12T04:52:01.258Z,2.85
2023-04-12T04:55:05.715Z,3.10
2023-04-12T04:58:08.791Z,2.72
2023-04-12T05:01:13.499Z,3.20
2023-04-12T05:04:16.995Z,3.10
2023-04-12T05:07:19.832Z,3.22
2023-04-12T05:10:21.790Z,2.63
2023-04-12T05:13:23.694Z,2.80
2023-04-12T05:16:25.715Z,3.00
2023-04-12T05:19:29.689Z,3.40
2023-04-12T05:22:32.669Z,3.22
2023-04-12T05:25:34.577Z,2.72
2023-04-12T05:28:36.370Z,3.28
2023-04-12T05:31:39.152Z,3.75
2023-04-12T05:34:42.355Z,2.90
2023-04-12T05:37:45.133Z,3.72
2023-04-12T05:40:50.037Z,3.40
2023-04-12T05:43:52.015Z,3.45
2023-04-12T05:46:54.013Z,3.30
2023-04-12T05:49:57.674Z,4.15
2023-04-12T05:53:01.437Z,3.45
2023-04-12T05:56:04.331Z,3.50
2023-04-12T05:59:06.732Z,3.80
2023-04-12T06:02:10.740Z,4.13
2023-04-12T06:05:15.436Z,4.85
2023-04-12T06:11:21.211Z,5.65
2023-04-12T06:14:23.082Z,5.15
2023-04-12T06:17:24.981Z,5.75
2023-04-12T06:20:28.379Z,5.15
2023-04-12T06:23:30.162Z,5.63
2023-04-12T06:26:38.941Z,5.55
2023-04-12T06:29:41.030Z,6.60
2023-04-12T06:32:43.116Z,4.60
2023-04-12T06:35:46.345Z,4.22
2023-04-12T06:38:50.943Z,4.70
2023-04-12T06:41:52.916Z,3.85
2023-04-12T06:44:54.750Z,4.80
2023-04-12T06:47:57.196Z,4.00
2023-04-12T06:51:00.573Z,4.03
2023-04-12T06:54:03.013Z,4.55
2023-04-12T06:57:09.584Z,4.15
2023-04-12T07:00:13.137Z,4.32
2023-04-12T07:03:15.003Z,4.65
2023-04-12T07:06:25.688Z,4.43
2023-04-12T07:09:30.708Z,4.53
2023-04-12T07:12:33.073Z,4.40
2023-04-12T07:15:34.972Z,5.05
2023-04-12T07:18:36.790Z,4.80
2023-04-12T07:21:40.269Z,4.72
2023-04-12T07:24:42.099Z,4.78
2023-04-12T07:27:44.768Z,4.93
2023-04-12T07:30:46.735Z,5.03
2023-04-12T07:33:48.975Z,5.18
2023-04-12T07:36:52.197Z,4.82
2023-04-12T07:39:54.830Z,4.85
2023-04-12T07:42:56.650Z,4.85
2023-04-12T07:45:59.108Z,4.88
2023-04-12T07:49:01.113Z,4.85
2023-04-12T07:52:05.491Z,5.32
2023-04-12T07:55:07.968Z,5.00
2023-04-12T07:58:10.016Z,4.65
2023-04-12T08:01:13.598Z,4.82
2023-04-12T08:04:15.734Z,4.43
2023-04-12T08:07:19.317Z,4.20
2023-04-12T08:10:21.160Z,4.25
2023-04-12T08:13:23.716Z,7.25
2023-04-12T08:16:25.869Z,4.35
2023-04-12T08:19:28.818Z,4.60
2023-04-12T08:22:32.052Z,4.30
2023-04-12T08:25:34.195Z,4.30
2023-04-12T08:28:38.456Z,4.55
2023-04-12T08:31:42.259Z,4.40
2023-04-12T08:34:46.053Z,4.72
2023-04-12T08:37:49.994Z,3.78
2023-04-12T08:40:51.807Z,3.17
2023-04-12T08:43:55.836Z,3.83
2023-04-12T08:46:58.093Z,3.30
2023-04-12T08:50:02.758Z,3.72
2023-04-12T08:53:06.167Z,3.58
2023-04-12T08:56:11.366Z,4.00
2023-04-12T08:59:14.639Z,3.33
2023-04-12T09:02:16.742Z,3.25
2023-04-12T09:05:19.713Z,3.72
2023-04-12T09:08:23.072Z,4.22
2023-04-12T09:11:27.616Z,3.38
2023-04-12T09:14:29.505Z,3.60
2023-04-12T09:17:32.425Z,3.70
2023-04-12T09:20:35.089Z,3.40
2023-04-12T09:23:38.915Z,3.10
2023-04-12T09:26:40.819Z,3.40
2023-04-12T09:29:42.653Z,2.80
2023-04-12T09:32:46.055Z,2.75
2023-04-12T09:35:48.500Z,2.95
2023-04-12T09:39:02.137Z,3.00
2023-04-12T09:42:05.045Z,2.92
2023-04-12T09:45:20.385Z,3.40
2023-04-12T09:48:22.445Z,3.00
2023-04-12T09:51:26.721Z,4.20
2023-04-12T09:54:30.827Z,2.85
2023-04-12T09:57:34.371Z,3.70
2023-04-12T10:00:36.944Z,3.55
2023-04-12T10:03:39.780Z,3.13
2023-04-12T10:06:42.243Z,3.30
2023-04-12T10:09:46.515Z,2.95
2023-04-12T10:12:49.563Z,2.97
2023-04-12T10:15:53.075Z,4.10
2023-04-12T10:18:55.781Z,3.35
2023-04-12T10:21:58.481Z,3.03
2023-04-12T10:25:02.386Z,3.20
2023-04-12T10:28:14.483Z,3.35
2023-04-12T10:31:30.452Z,3.55
2023-04-12T10:34:32.386Z,3.35
2023-04-12T10:37:59.338Z,3.60
2023-04-12T10:41:15.618Z,4.13
2023-04-12T10:44:25.018Z,3.47
2023-04-12T10:48:02.003Z,3.00
2023-04-12T10:51:20.031Z,2.72
2023-04-12T10:54:40.746Z,3.95
2023-04-12T10:57:49.500Z,3.97
2023-04-12T11:01:10.640Z,3.20
2023-04-12T11:04:18.087Z,2.83
2023-04-12T11:07:20.964Z,3.20
2023-04-12T11:10:25.920Z,3.15
2023-04-12T11:13:30.107Z,2.63
2023-04-12T11:16:32.267Z,2.90
2023-04-12T11:19:36.634Z,2.58
2023-04-12T11:22:40.933Z,2.72
2023-04-12T11:25:44.297Z,2.70
2023-04-12T11:28:48.308Z,2.80
2023-04-12T11:31:50.399Z,2.60
2023-04-12T11:34:53.333Z,2.10
2023-04-12T11:37:57.474Z,2.47
2023-04-12T11:41:00.308Z,2.40
2023-04-12T11:44:03.804Z,2.63
2023-04-12T11:47:05.894Z,2.20
2023-04-12T11:50:09.212Z,2.78
2023-04-12T11:53:12.203Z,2.22
2023-04-12T11:56:14.732Z,1.75
2023-04-12T11:59:18.533Z,2.55
2023-04-12T12:02:23.803Z,2.22
2023-04-12T12:05:27.300Z,2.42
2023-04-12T12:08:30.513Z,2.38
2023-04-12T12:11:33.145Z,2.65
2023-04-12T12:14:36.606Z,2.70
2023-04-12T12:17:38.952Z,2.05
2023-04-12T12:20:42.566Z,2.67
2023-04-12T12:23:46.250Z,2.40
2023-04-12T12:26:49.695Z,2.65
2023-04-12T12:29:55.330Z,2.63
2023-04-12T12:32:57.186Z,2.50
2023-04-12T12:35:59.167Z,2.22
2023-04-12T12:39:07.294Z,2.70
2023-04-12T12:42:12.452Z,2.45
2023-04-12T12:45:17.322Z,2.25
2023-04-12T12:48:21.622Z,2.35
2023-04-12T12:51:23.535Z,2.22
2023-04-12T12:57:30.820Z,2.08
2023-04-12T13:00:34.061Z,1.92
2023-04-12T13:03:36.214Z,1.90
2023-04-12T13:06:39.335Z,2.58
2023-04-12T13:09:41.567Z,2.30
2023-04-12T13:12:43.376Z,2.10
2023-04-12T13:15:51.784Z,2.55
2023-04-12T13:18:53.982Z,1.92
2023-04-12T13:21:56.183Z,1.90
2023-04-12T13:24:58.962Z,2.42
2023-04-12T13:28:00.861Z,2.30
2023-04-12T13:31:04.617Z,2.17
2023-04-12T13:34:06.467Z,2.30
2023-04-12T13:37:08.982Z,1.70
2023-04-12T13:40:11.316Z,1.80
2023-04-12T13:43:13.172Z,2.03
2023-04-12T13:46:17.346Z,2.22
2023-04-12T13:49:19.333Z,1.85
2023-04-12T13:52:21.914Z,2.08
2023-04-12T13:55:23.789Z,1.80
2023-04-12T13:58:26.111Z,2.00
2023-04-12T14:01:30.291Z,2.22
2023-04-12T14:04:32.320Z,1.85
2023-04-12T14:07:34.822Z,1.98
2023-04-12T14:10:36.660Z,2.10
2023-04-12T14:13:38.854Z,1.63
2023-04-12T14:16:42.187Z,1.88
2023-04-12T14:19:44.831Z,1.75
2023-04-12T14:22:46.661Z,1.60
2023-04-12T14:25:48.496Z,1.98
2023-04-12T14:28:51.740Z,2.10
2023-04-12T14:31:54.903Z,1.70
2023-04-12T14:34:56.836Z,2.05
2023-04-12T14:37:58.606Z,2.00
2023-04-12T14:41:00.622Z,1.45
2023-04-12T14:44:02.764Z,1.52
2023-04-12T14:47:06.136Z,2.17
2023-04-12T14:50:09.333Z,1.92
2023-04-12T14:53:13.800Z,1.88
2023-04-12T14:56:23.798Z,1.67
2023-04-12T14:59:29.711Z,1.88
2023-04-12T15:02:33.283Z,2.13
2023-04-12T15:05:36.168Z,2.13
2023-04-12T15:08:41.697Z,1.70
2023-04-12T15:11:47.052Z,1.85
2023-04-12T15:17:55.813Z,2.13
2023-04-12T15:21:00.232Z,1.83
2023-04-12T15:24:02.803Z,1.70
2023-04-12T15:27:06.607Z,2.25
2023-04-12T15:30:12.313Z,2.90
2023-04-12T15:36:20.375Z,2.00
2023-04-12T15:39:22.863Z,1.83
2023-04-12T15:42:24.699Z,2.08
2023-04-12T15:45:28.163Z,3.85
2023-04-12T15:48:31.708Z,2.30
2023-04-12T15:51:35.461Z,1.85
2023-04-12T15:54:43.582Z,1.80
2023-04-12T15:57:47.112Z,1.98
2023-04-12T16:00:49.820Z,2.00
2023-04-12T16:03:53.953Z,1.42
2023-04-12T16:06:55.896Z,4.00
2023-04-12T16:09:58.049Z,2.40
2023-04-12T16:13:00.574Z,1.67
2023-04-12T16:16:02.399Z,1.95
2023-04-12T16:19:06.361Z,1.42
2023-04-12T16:22:09.105Z,1.75
2023-04-12T16:25:12.102Z,3.05
2023-04-12T16:28:17.725Z,1.65
2023-04-12T16:34:25.116Z,1.80
2023-04-12T16:37:29.793Z,1.60
2023-04-12T16:40:32.507Z,1.38
2023-04-12T16:43:34.394Z,1.52
2023-04-12T16:46:36.828Z,1.60
2023-04-12T16:49:42.197Z,1.50
2023-04-12T16:52:44.177Z,2.08
2023-04-12T16:55:47.757Z,1.50
2023-04-12T16:58:50.326Z,1.70
2023-04-12T17:01:53.416Z,1.40
2023-04-12T17:04:56.984Z,2.40
2023-04-12T17:08:03.239Z,1.65
2023-04-12T17:11:05.963Z,1.58
2023-04-12T17:14:28.729Z,1.85
2023-04-12T17:17:30.789Z,1.48
2023-04-12T17:20:36.644Z,2.15
2023-04-12T17:23:39.764Z,2.03
2023-04-12T17:26:42.521Z,2.53
2023-04-12T17:29:45.388Z,2.20
2023-04-12T17:32:47.895Z,3.28
2023-04-12T17:35:55.251Z,3.35
2023-04-12T17:38:59.710Z,3.97
2023-04-12T17:42:02.029Z,3.83
2023-04-12T17:45:06.872Z,4.32
2023-04-12T17:48:11.744Z,3.53
2023-04-12T17:51:17.765Z,3.38
2023-04-12T17:54:21.815Z,3.28
2023-04-12T17:57:24.142Z,2.80
2023-04-12T18:00:27.781Z,2.38
2023-04-12T18:03:30.424Z,2.88
2023-04-12T18:06:36.606Z,3.38
2023-04-12T18:09:39.086Z,3.25
2023-04-12T18:12:41.488Z,3.25
2023-04-12T18:15:44.013Z,3.55
2023-04-12T18:18:46.579Z,3.38
2023-04-12T18:21:51.745Z,2.50
2023-04-12T18:24:54.966Z,3.00
2023-04-12T18:27:58.187Z,2.95
2023-04-12T18:31:02.853Z,2.67
2023-04-12T18:34:06.712Z,3.38
2023-04-12T18:37:13.597Z,3.95
2023-04-12T18:40:17.303Z,3.28
2023-04-12T18:43:21.792Z,3.33
2023-04-12T18:46:27.397Z,3.45
2023-04-12T18:49:30.545Z,3.05
2023-04-12T18:52:38.742Z,3.38
2023-04-12T18:55:43.383Z,3.13
2023-04-12T19:01:54.608Z,3.45
2023-04-12T19:04:59.072Z,2.88
2023-04-12T19:08:03.748Z,2.92
2023-04-12T19:11:07.236Z,3.58
2023-04-12T19:14:12.178Z,3.83
2023-04-12T19:17:15.471Z,3.00
2023-04-12T19:20:20.082Z,3.70
2023-04-12T19:23:25.793Z,3.00
2023-04-12T19:26:29.103Z,3.35
2023-04-12T19:29:31.866Z,3.13
2023-04-12T19:32:34.299Z,4.03
2023-04-12T19:35:42.029Z,3.10
2023-04-12T19:38:49.182Z,3.08
2023-04-12T19:41:53.181Z,2.55
2023-04-12T19:44:56.386Z,3.50
2023-04-12T19:48:00.693Z,2.65
2023-04-12T19:51:03.148Z,2.95
2023-04-12T19:54:10.649Z,3.00
2023-04-12T19:57:21.002Z,2.80
2023-04-12T20:00:26.008Z,2.90
2023-04-12T20:03:29.070Z,3.20
2023-04-12T20:06:32.201Z,2.83
2023-04-12T20:09:37.115Z,2.78
2023-04-12T20:12:40.999Z,2.70
2023-04-12T20:15:45.565Z,2.53
2023-04-12T20:18:48.732Z,2.70
2023-04-12T20:21:51.452Z,2.92
2023-04-12T20:24:55.958Z,3.70
2023-04-12T20:27:59.267Z,3.30
2023-04-12T20:31:02.308Z,3.38
2023-04-12T20:34:05.399Z,2.70
2023-04-12T20:37:09.069Z,2.78
2023-04-12T20:40:13.240Z,2.97
2023-04-12T20:43:17.100Z,2.70
2023-04-12T20:46:20.711Z,2.60
2023-04-12T20:49:26.913Z,2.97
2023-04-12T20:52:30.517Z,3.03
2023-04-12T20:55:35.343Z,3.10
2023-04-12T20:58:38.565Z,3.95
2023-04-12T21:01:40.613Z,4.13
2023-04-12T21:04:42.759Z,4.60
2023-04-12T21:07:46.819Z,5.22
2023-04-12T21:10:50.897Z,3.25
2023-04-12T21:13:52.729Z,3.42
2023-04-12T21:16:54.563Z,5.38
2023-04-12T21:19:57.497Z,6.55
2023-04-12T21:22:59.758Z,5.80
2023-04-12T21:26:04.145Z,6.72
2023-04-12T21:29:06.692Z,7.05
2023-04-12T21:32:09.267Z,6.25
2023-04-12T21:35:11.971Z,5.30
2023-04-12T21:38:14.684Z,5.50
2023-04-12T21:41:17.836Z,5.63
2023-04-12T21:44:20.065Z,4.13
2023-04-12T21:47:22.803Z,3.83
2023-04-12T21:50:24.770Z,7.50
2023-04-12T21:53:27.359Z,7.53
2023-04-12T21:56:30.531Z,7.13
2023-04-12T21:59:32.648Z,6.00
2023-04-12T22:02:34.605Z,6.88
2023-04-12T22:05:39.863Z,4.85
2023-04-12T22:08:44.220Z,4.70
2023-04-12T22:11:49.129Z,3.47
2023-04-12T22:14:51.363Z,3.20
2023-04-12T22:17:53.423Z,4.43
2023-04-12T22:20:56.275Z,3.35
2023-04-12T22:23:58.421Z,3.70
2023-04-12T22:27:01.936Z,3.63
2023-04-12T22:30:06.927Z,4.53
2023-04-12T22:33:08.891Z,4.30
2023-04-12T22:36:11.874Z,5.63
2023-04-12T22:39:15.636Z,4.72
2023-04-12T22:42:20.814Z,5.25
2023-04-12T22:45:22.614Z,4.93
2023-04-12T22:48:25.053Z,5.10
2023-04-12T22:51:28.058Z,4.53
2023-04-12T22:54:29.921Z,5.00
2023-04-12T22:57:35.097Z,4.30
2023-04-12T23:00:37.132Z,4.28
2023-04-12T23:03:41.817Z,5.70
2023-04-12T23:06:44.269Z,5.72
2023-04-12T23:09:46.492Z,6.35
2023-04-12T23:12:54.723Z,6.22
2023-04-12T23:15:57.850Z,6.30
2023-04-12T23:18:59.993Z,7.03
2023-04-12T23:22:03.373Z,7.65
2023-04-12T23:25:06.008Z,8.32
2023-04-12T23:28:15.133Z,7.45
2023-04-12T23:31:17.115Z,6.97
2023-04-12T23:34:22.082Z,7.40
2023-04-12T23:37:23.943Z,6.82
2023-04-12T23:40:26.415Z,6.70
2023-04-12T23:43:31.293Z,7.10
2023-04-12T23:46:33.162Z,6.88
2023-04-12T23:49:35.464Z,9.15
2023-04-12T23:52:37.531Z,6.50
2023-04-12T23:55:42.783Z,7.20
2023-04-12T23:58:46.605Z,5.60
